SCX3028 KLAL-KRIC
Flight info
| Callsign | SCX3028 |
|---|---|
| Flight time | 2h 13m |
| Altitude | 35000 |
| Route | NITTS WILON CAMJO/N0456F370 Q109 RAYVO Q87 RIDDN NEAVL DUCXS5 |
| Aircraft | B738/M-SDE2E3FGHIRWXY/LB1 |
Departure
| Time | 2026-04-25 22:10 |
|---|---|
| Airport | Lakeland Linder International Airport (KLAL) |
Arrival
| Time | 2026-04-26 00:23 |
|---|---|
| Airport | Richmond International Airport (KRIC) |
| Time | Latitude | Longitude | Altitude | Speed | Heading |
|---|---|---|---|---|---|
| 2026-04-25 21:53 | 27.99187 | -82.03376 | 147 ft | 0 kts | 357° |
| 2026-04-25 22:04 | 27.99172 | -82.03376 | 147 ft | 2 kts | 358° |
| 2026-04-25 22:04 | 27.99156 | -82.03375 | 147 ft | 2 kts | 359° |
| 2026-04-25 22:05 | 27.99139 | -82.03375 | 147 ft | 2 kts | 2° |
| 2026-04-25 22:05 | 27.99123 | -82.03377 | 147 ft | 2 kts | 8° |
| 2026-04-25 22:05 | 27.99114 | -82.03378 | 147 ft | 0 kts | 18° |
| 2026-04-25 22:07 | 27.99118 | -82.03376 | 147 ft | 2 kts | 24° |
| 2026-04-25 22:07 | 27.99133 | -82.03314 | 147 ft | 10 kts | 88° |
| 2026-04-25 22:07 | 27.99111 | -82.03243 | 147 ft | 8 kts | 158° |
| 2026-04-25 22:08 | 27.99054 | -82.03241 | 147 ft | 8 kts | 184° |
| 2026-04-25 22:08 | 27.99034 | -82.03278 | 147 ft | 7 kts | 256° |
| 2026-04-25 22:08 | 27.99018 | -82.03329 | 147 ft | 7 kts | 241° |
| 2026-04-25 22:08 | 27.98975 | -82.03351 | 148 ft | 7 kts | 188° |
| 2026-04-25 22:09 | 27.98930 | -82.03339 | 148 ft | 7 kts | 135° |
| 2026-04-25 22:09 | 27.98925 | -82.03285 | 148 ft | 7 kts | 87° |
| 2026-04-25 22:09 | 27.98923 | -82.03112 | 147 ft | 60 kts | 91° |
| 2026-04-25 22:09 | 27.98926 | -82.02292 | 149 ft | 146 kts | 89° |
| 2026-04-25 22:10 | 27.98933 | -82.00971 | 739 ft | 173 kts | 92° |
| 2026-04-25 22:10 | 27.98907 | -81.99580 | 1786 ft | 180 kts | 92° |
| 2026-04-25 22:10 | 27.99185 | -81.98121 | 2483 ft | 209 kts | 59° |
| 2026-04-25 22:10 | 28.00250 | -81.96998 | 3009 ft | 221 kts | 22° |
| 2026-04-25 22:11 | 28.01803 | -81.96723 | 3321 ft | 239 kts | 349° |
| 2026-04-25 22:11 | 28.03383 | -81.97371 | 3886 ft | 245 kts | 329° |
| 2026-04-25 22:11 | 28.04891 | -81.98398 | 4417 ft | 263 kts | 326° |
| 2026-04-25 22:11 | 28.06449 | -81.99555 | 5215 ft | 270 kts | 325° |
| 2026-04-25 22:12 | 28.08026 | -82.00741 | 6227 ft | 273 kts | 326° |
| 2026-04-25 22:12 | 28.09614 | -82.01933 | 7173 ft | 275 kts | 325° |
| 2026-04-25 22:12 | 28.11221 | -82.03129 | 8164 ft | 277 kts | 326° |
| 2026-04-25 22:12 | 28.12314 | -82.03938 | 8813 ft | 279 kts | 325° |
| 2026-04-25 22:13 | 28.14486 | -82.05539 | 10008 ft | 284 kts | 325° |
| 2026-04-25 22:13 | 28.16167 | -82.06775 | 10638 ft | 297 kts | 326° |
| 2026-04-25 22:13 | 28.17979 | -82.08105 | 10830 ft | 324 kts | 326° |
| 2026-04-25 22:13 | 28.19946 | -82.09547 | 11054 ft | 347 kts | 326° |
| 2026-04-25 22:14 | 28.22003 | -82.11052 | 11622 ft | 356 kts | 326° |
| 2026-04-25 22:14 | 28.24087 | -82.12575 | 12453 ft | 357 kts | 326° |
| 2026-04-25 22:14 | 28.26178 | -82.14102 | 13324 ft | 357 kts | 326° |
| 2026-04-25 22:14 | 28.28270 | -82.15631 | 14093 ft | 359 kts | 326° |
| 2026-04-25 22:15 | 28.30385 | -82.17178 | 14730 ft | 364 kts | 326° |
| 2026-04-25 22:15 | 28.32524 | -82.18743 | 15373 ft | 368 kts | 326° |
| 2026-04-25 22:15 | 28.34687 | -82.20327 | 16006 ft | 372 kts | 326° |
| 2026-04-25 22:16 | 28.39042 | -82.23518 | 17275 ft | 378 kts | 326° |
| 2026-04-25 22:16 | 28.41264 | -82.25148 | 17878 ft | 382 kts | 326° |
| 2026-04-25 22:16 | 28.43509 | -82.26795 | 18431 ft | 386 kts | 326° |
| 2026-04-25 22:16 | 28.45774 | -82.28458 | 18942 ft | 389 kts | 326° |
| 2026-04-25 22:17 | 28.48060 | -82.30136 | 19453 ft | 393 kts | 326° |
| 2026-04-25 22:17 | 28.50367 | -82.31832 | 19958 ft | 396 kts | 326° |
| 2026-04-25 22:17 | 28.52692 | -82.33541 | 20464 ft | 399 kts | 326° |
| 2026-04-25 22:17 | 28.55036 | -82.35265 | 20951 ft | 403 kts | 326° |
| 2026-04-25 22:18 | 28.57398 | -82.37004 | 21433 ft | 406 kts | 326° |
| 2026-04-25 22:18 | 28.59775 | -82.38754 | 21910 ft | 410 kts | 326° |
| 2026-04-25 22:18 | 28.62181 | -82.40527 | 22362 ft | 413 kts | 326° |
| 2026-04-25 22:18 | 28.64602 | -82.42313 | 22810 ft | 416 kts | 326° |
| 2026-04-25 22:19 | 28.67043 | -82.44114 | 23234 ft | 420 kts | 326° |
| 2026-04-25 22:19 | 28.69505 | -82.45931 | 23641 ft | 423 kts | 326° |
| 2026-04-25 22:19 | 28.71990 | -82.47760 | 24042 ft | 425 kts | 327° |
| 2026-04-25 22:19 | 28.74604 | -82.49347 | 24402 ft | 429 kts | 334° |
| 2026-04-25 22:20 | 28.77442 | -82.50474 | 24767 ft | 433 kts | 343° |
| 2026-04-25 22:20 | 28.80338 | -82.51321 | 25139 ft | 436 kts | 344° |
| 2026-04-25 22:20 | 28.83290 | -82.52151 | 25497 ft | 438 kts | 344° |
| 2026-04-25 22:20 | 28.86260 | -82.52982 | 25846 ft | 440 kts | 344° |
| 2026-04-25 22:21 | 28.89246 | -82.53829 | 26190 ft | 443 kts | 343° |
| 2026-04-25 22:21 | 28.92237 | -82.54690 | 26528 ft | 445 kts | 343° |
| 2026-04-25 22:21 | 28.95243 | -82.55564 | 26854 ft | 447 kts | 343° |
| 2026-04-25 22:21 | 28.98264 | -82.56449 | 27173 ft | 449 kts | 343° |
| 2026-04-25 22:22 | 29.01300 | -82.57342 | 27479 ft | 451 kts | 343° |
| 2026-04-25 22:22 | 29.04350 | -82.58240 | 27787 ft | 453 kts | 343° |
| 2026-04-25 22:22 | 29.07411 | -82.59141 | 28095 ft | 455 kts | 343° |
| 2026-04-25 22:22 | 29.10493 | -82.60049 | 28386 ft | 458 kts | 343° |
| 2026-04-25 22:23 | 29.13551 | -82.60951 | 28652 ft | 460 kts | 343° |
| 2026-04-25 22:23 | 29.16656 | -82.61866 | 28941 ft | 461 kts | 343° |
| 2026-04-25 22:23 | 29.19769 | -82.62784 | 29296 ft | 461 kts | 343° |
| 2026-04-25 22:23 | 29.22869 | -82.63699 | 29737 ft | 460 kts | 343° |
| 2026-04-25 22:24 | 29.25962 | -82.64611 | 30161 ft | 458 kts | 343° |
| 2026-04-25 22:24 | 29.29042 | -82.65522 | 30522 ft | 457 kts | 343° |
| 2026-04-25 22:24 | 29.32115 | -82.66431 | 30893 ft | 456 kts | 343° |
| 2026-04-25 22:24 | 29.35179 | -82.67338 | 31265 ft | 455 kts | 342° |
| 2026-04-25 22:25 | 29.38240 | -82.68244 | 31615 ft | 454 kts | 342° |
| 2026-04-25 22:25 | 29.41315 | -82.69062 | 31981 ft | 454 kts | 347° |
| 2026-04-25 22:25 | 29.44463 | -82.69413 | 32344 ft | 456 kts | 356° |
| 2026-04-25 22:25 | 29.47639 | -82.69405 | 32722 ft | 456 kts | 357° |
| 2026-04-25 22:26 | 29.50803 | -82.69352 | 33065 ft | 455 kts | 358° |
| 2026-04-25 22:26 | 29.53969 | -82.69290 | 33425 ft | 454 kts | 357° |
| 2026-04-25 22:26 | 29.57119 | -82.69236 | 33775 ft | 453 kts | 357° |
| 2026-04-25 22:26 | 29.60267 | -82.69194 | 34099 ft | 451 kts | 357° |
| 2026-04-25 22:27 | 29.63362 | -82.69163 | 34390 ft | 450 kts | 356° |
| 2026-04-25 22:27 | 29.66490 | -82.69139 | 34708 ft | 448 kts | 356° |
| 2026-04-25 22:27 | 29.69611 | -82.69118 | 34910 ft | 450 kts | 356° |
| 2026-04-25 22:28 | 29.75907 | -82.69082 | 34905 ft | 453 kts | 356° |
| 2026-04-25 22:28 | 29.82166 | -82.69042 | 34896 ft | 447 kts | 356° |
| 2026-04-25 22:29 | 29.88370 | -82.69002 | 34906 ft | 445 kts | 356° |
| 2026-04-25 22:29 | 29.94567 | -82.68963 | 34904 ft | 445 kts | 356° |
| 2026-04-25 22:30 | 30.03836 | -82.68905 | 34895 ft | 446 kts | 356° |
| 2026-04-25 22:30 | 30.09035 | -82.68871 | 34895 ft | 447 kts | 356° |
| 2026-04-25 22:31 | 30.16268 | -82.68825 | 34895 ft | 448 kts | 356° |
| 2026-04-25 22:31 | 30.22508 | -82.68785 | 34892 ft | 449 kts | 356° |
| 2026-04-25 22:32 | 30.28763 | -82.68744 | 34895 ft | 450 kts | 356° |
| 2026-04-25 22:32 | 30.35032 | -82.68703 | 34895 ft | 451 kts | 357° |
| 2026-04-25 22:33 | 30.41309 | -82.68663 | 34907 ft | 451 kts | 357° |
| 2026-04-25 22:33 | 30.47599 | -82.68622 | 34912 ft | 452 kts | 357° |
| 2026-04-25 22:34 | 30.52826 | -82.68308 | 34918 ft | 456 kts | 6° |
| 2026-04-25 22:34 | 30.59075 | -82.66984 | 34923 ft | 457 kts | 7° |
| 2026-04-25 22:35 | 30.65314 | -82.65579 | 34926 ft | 457 kts | 7° |
| 2026-04-25 22:35 | 30.71573 | -82.64218 | 34916 ft | 458 kts | 7° |
| 2026-04-25 22:36 | 30.77833 | -82.62884 | 34907 ft | 455 kts | 7° |
| 2026-04-25 22:36 | 30.84010 | -82.61573 | 34914 ft | 454 kts | 7° |
| 2026-04-25 22:37 | 30.90277 | -82.60240 | 35147 ft | 459 kts | 7° |
| 2026-04-25 22:37 | 30.93409 | -82.59571 | 35513 ft | 456 kts | 7° |
| 2026-04-25 22:37 | 30.96522 | -82.58904 | 35896 ft | 453 kts | 7° |
| 2026-04-25 22:38 | 30.99614 | -82.58243 | 36191 ft | 452 kts | 6° |
| 2026-04-25 22:38 | 31.02706 | -82.57583 | 36417 ft | 452 kts | 6° |
| 2026-04-25 22:38 | 31.05794 | -82.56923 | 36667 ft | 452 kts | 7° |
| 2026-04-25 22:38 | 31.08853 | -82.56034 | 36928 ft | 455 kts | 14° |
| 2026-04-25 22:39 | 31.14625 | -82.52905 | 36888 ft | 463 kts | 24° |
| 2026-04-25 22:39 | 31.20290 | -82.49365 | 36870 ft | 460 kts | 24° |
| 2026-04-25 22:40 | 31.25923 | -82.45867 | 36884 ft | 457 kts | 24° |
| 2026-04-25 22:40 | 31.31533 | -82.42433 | 36879 ft | 454 kts | 24° |
| 2026-04-25 22:41 | 31.37135 | -82.39021 | 36883 ft | 454 kts | 24° |
| 2026-04-25 22:41 | 31.42708 | -82.35625 | 36879 ft | 454 kts | 24° |
| 2026-04-25 22:42 | 31.48335 | -82.32189 | 36868 ft | 457 kts | 24° |
| 2026-04-25 22:42 | 31.53978 | -82.28737 | 36870 ft | 458 kts | 24° |
| 2026-04-25 22:43 | 31.59648 | -82.25263 | 36875 ft | 460 kts | 24° |
| 2026-04-25 22:43 | 31.65335 | -82.21773 | 36858 ft | 461 kts | 24° |
| 2026-04-25 22:44 | 31.70998 | -82.18293 | 36863 ft | 459 kts | 24° |
| 2026-04-25 22:44 | 31.76613 | -82.14838 | 36855 ft | 458 kts | 24° |
| 2026-04-25 22:45 | 31.82257 | -82.11361 | 36864 ft | 457 kts | 24° |
| 2026-04-25 22:45 | 31.87886 | -82.07888 | 36867 ft | 457 kts | 24° |
| 2026-04-25 22:46 | 31.93514 | -82.04411 | 36876 ft | 457 kts | 24° |
| 2026-04-25 22:46 | 31.99146 | -82.00927 | 36875 ft | 457 kts | 24° |
| 2026-04-25 22:47 | 32.04785 | -81.97433 | 36880 ft | 459 kts | 24° |
| 2026-04-25 22:47 | 32.10456 | -81.93914 | 36860 ft | 461 kts | 24° |
| 2026-04-25 22:48 | 32.15911 | -81.90029 | 36851 ft | 465 kts | 37° |
| 2026-04-25 22:48 | 32.20711 | -81.84889 | 36860 ft | 466 kts | 40° |
| 2026-04-25 22:49 | 32.25428 | -81.79648 | 36865 ft | 465 kts | 40° |
| 2026-04-25 22:49 | 32.30165 | -81.74452 | 36855 ft | 465 kts | 40° |
| 2026-04-25 22:50 | 32.34925 | -81.69278 | 36852 ft | 464 kts | 40° |
| 2026-04-25 22:50 | 32.39681 | -81.64112 | 36848 ft | 465 kts | 40° |
| 2026-04-25 22:51 | 32.44442 | -81.58931 | 36853 ft | 464 kts | 40° |
| 2026-04-25 22:51 | 32.49194 | -81.53748 | 36861 ft | 464 kts | 40° |
| 2026-04-25 22:52 | 32.53910 | -81.48596 | 36874 ft | 464 kts | 40° |
| 2026-04-25 22:52 | 32.57888 | -81.44244 | 36864 ft | 464 kts | 40° |
| 2026-04-25 22:53 | 32.63402 | -81.38206 | 36866 ft | 464 kts | 40° |
| 2026-04-25 22:53 | 32.68153 | -81.33004 | 36861 ft | 465 kts | 40° |
| 2026-04-25 22:54 | 32.72904 | -81.27795 | 36860 ft | 464 kts | 40° |
| 2026-04-25 22:54 | 32.77648 | -81.22585 | 36857 ft | 465 kts | 40° |
| 2026-04-25 22:55 | 32.82387 | -81.17370 | 36863 ft | 465 kts | 40° |
| 2026-04-25 22:55 | 32.87097 | -81.12179 | 36858 ft | 464 kts | 40° |
| 2026-04-25 22:56 | 32.91838 | -81.06947 | 36865 ft | 464 kts | 40° |
| 2026-04-25 22:56 | 32.96574 | -81.01713 | 36861 ft | 465 kts | 40° |
| 2026-04-25 22:57 | 33.01315 | -80.96463 | 36862 ft | 465 kts | 40° |
| 2026-04-25 22:57 | 33.06055 | -80.91208 | 36872 ft | 465 kts | 40° |
| 2026-04-25 22:58 | 33.10793 | -80.85947 | 36881 ft | 465 kts | 40° |
| 2026-04-25 22:58 | 33.15524 | -80.80684 | 36875 ft | 464 kts | 40° |
| 2026-04-25 22:59 | 33.20240 | -80.75430 | 36858 ft | 463 kts | 41° |
| 2026-04-25 22:59 | 33.24945 | -80.70182 | 36856 ft | 462 kts | 41° |
| 2026-04-25 23:00 | 33.29605 | -80.64974 | 36866 ft | 461 kts | 41° |
| 2026-04-25 23:00 | 33.34287 | -80.59734 | 36861 ft | 461 kts | 41° |
| 2026-04-25 23:01 | 33.38983 | -80.54471 | 36871 ft | 465 kts | 41° |
| 2026-04-25 23:01 | 33.43717 | -80.49157 | 36852 ft | 467 kts | 41° |
| 2026-04-25 23:02 | 33.48151 | -80.43453 | 36847 ft | 472 kts | 53° |
| 2026-04-25 23:02 | 33.51378 | -80.36581 | 36852 ft | 473 kts | 61° |
| 2026-04-25 23:03 | 33.54398 | -80.29600 | 36836 ft | 468 kts | 60° |
| 2026-04-25 23:03 | 33.57428 | -80.22759 | 36851 ft | 468 kts | 60° |
| 2026-04-25 23:04 | 33.60013 | -80.16987 | 36862 ft | 469 kts | 60° |
| 2026-04-25 23:04 | 33.63855 | -80.09143 | 36841 ft | 469 kts | 48° |
| 2026-04-25 23:05 | 33.68721 | -80.04045 | 36843 ft | 464 kts | 27° |
| 2026-04-25 23:05 | 33.74469 | -80.00546 | 36859 ft | 463 kts | 23° |
| 2026-04-25 23:06 | 33.80258 | -79.97143 | 36859 ft | 464 kts | 24° |
| 2026-04-25 23:06 | 33.86034 | -79.93669 | 36858 ft | 464 kts | 24° |
| 2026-04-25 23:07 | 33.91766 | -79.90172 | 36852 ft | 464 kts | 24° |
| 2026-04-25 23:07 | 33.97524 | -79.86648 | 36847 ft | 463 kts | 24° |
| 2026-04-25 23:08 | 34.03259 | -79.83136 | 36845 ft | 462 kts | 24° |
| 2026-04-25 23:08 | 34.08989 | -79.79622 | 36843 ft | 462 kts | 24° |
| 2026-04-25 23:09 | 34.14713 | -79.76108 | 36840 ft | 461 kts | 24° |
| 2026-04-25 23:09 | 34.20426 | -79.72592 | 36846 ft | 460 kts | 24° |
| 2026-04-25 23:10 | 34.26123 | -79.69071 | 36840 ft | 460 kts | 24° |
| 2026-04-25 23:10 | 34.31779 | -79.65571 | 36846 ft | 459 kts | 24° |
| 2026-04-25 23:11 | 34.37462 | -79.62050 | 36850 ft | 459 kts | 24° |
| 2026-04-25 23:11 | 34.43140 | -79.58531 | 36839 ft | 458 kts | 24° |
| 2026-04-25 23:12 | 34.48819 | -79.55006 | 36844 ft | 458 kts | 24° |
| 2026-04-25 23:12 | 34.54484 | -79.51486 | 36845 ft | 458 kts | 24° |
| 2026-04-25 23:13 | 34.60097 | -79.47805 | 36843 ft | 459 kts | 26° |
| 2026-04-25 23:13 | 34.65662 | -79.43998 | 36845 ft | 459 kts | 26° |
| 2026-04-25 23:14 | 34.71246 | -79.40225 | 36846 ft | 459 kts | 26° |
| 2026-04-25 23:14 | 34.76832 | -79.36452 | 36847 ft | 459 kts | 26° |
| 2026-04-25 23:15 | 34.82418 | -79.32669 | 36844 ft | 460 kts | 26° |
| 2026-04-25 23:15 | 34.87968 | -79.28903 | 36839 ft | 460 kts | 26° |
| 2026-04-25 23:16 | 34.93552 | -79.25107 | 36845 ft | 460 kts | 26° |
| 2026-04-25 23:16 | 34.99140 | -79.21303 | 36837 ft | 460 kts | 26° |
| 2026-04-25 23:17 | 35.04727 | -79.17493 | 36845 ft | 460 kts | 26° |
| 2026-04-25 23:17 | 35.10313 | -79.13679 | 36846 ft | 460 kts | 26° |
| 2026-04-25 23:18 | 35.15896 | -79.09860 | 36845 ft | 460 kts | 26° |
| 2026-04-25 23:18 | 35.21475 | -79.06038 | 36845 ft | 460 kts | 26° |
| 2026-04-25 23:19 | 35.27056 | -79.02208 | 36841 ft | 460 kts | 26° |
| 2026-04-25 23:19 | 35.32632 | -78.98376 | 36842 ft | 460 kts | 26° |
| 2026-04-25 23:20 | 35.38167 | -78.94565 | 36846 ft | 460 kts | 26° |
| 2026-04-25 23:20 | 35.43745 | -78.90719 | 36850 ft | 459 kts | 26° |
| 2026-04-25 23:21 | 35.49312 | -78.86870 | 36847 ft | 460 kts | 26° |
| 2026-04-25 23:21 | 35.54881 | -78.83010 | 36842 ft | 460 kts | 26° |
| 2026-04-25 23:22 | 35.60407 | -78.79176 | 36839 ft | 460 kts | 26° |
| 2026-04-25 23:23 | 35.68738 | -78.73401 | 36850 ft | 460 kts | 26° |
| 2026-04-25 23:23 | 35.74326 | -78.69523 | 36806 ft | 464 kts | 23° |
| 2026-04-25 23:24 | 35.80011 | -78.65578 | 36862 ft | 474 kts | 23° |
| 2026-04-25 23:24 | 35.85814 | -78.61541 | 36871 ft | 484 kts | 24° |
| 2026-04-25 23:25 | 35.91618 | -78.57483 | 36835 ft | 472 kts | 24° |
| 2026-04-25 23:25 | 35.94423 | -78.55510 | 36855 ft | 457 kts | 23° |
| 2026-04-25 23:25 | 35.97147 | -78.53594 | 36865 ft | 443 kts | 23° |
| 2026-04-25 23:26 | 36.02342 | -78.49949 | 36873 ft | 417 kts | 22° |
| 2026-04-25 23:26 | 36.04829 | -78.48205 | 36879 ft | 404 kts | 22° |
| 2026-04-25 23:26 | 36.07257 | -78.46506 | 36886 ft | 400 kts | 22° |
| 2026-04-25 23:27 | 36.12181 | -78.43072 | 36918 ft | 413 kts | 22° |
| 2026-04-25 23:27 | 36.17270 | -78.39507 | 36909 ft | 426 kts | 22° |
| 2026-04-25 23:28 | 36.22432 | -78.35866 | 36884 ft | 426 kts | 23° |
| 2026-04-25 23:28 | 36.27519 | -78.32266 | 36864 ft | 416 kts | 22° |
| 2026-04-25 23:29 | 36.32555 | -78.28712 | 36887 ft | 417 kts | 22° |
| 2026-04-25 23:29 | 36.37558 | -78.25092 | 36876 ft | 423 kts | 28° |
| 2026-04-25 23:30 | 36.42050 | -78.20234 | 36877 ft | 432 kts | 38° |
| 2026-04-25 23:30 | 36.46370 | -78.15026 | 36905 ft | 434 kts | 39° |
| 2026-04-25 23:31 | 36.50012 | -78.10663 | 36915 ft | 434 kts | 38° |
| 2026-04-25 23:31 | 36.54362 | -78.05508 | 36931 ft | 435 kts | 38° |
| 2026-04-25 23:32 | 36.58751 | -78.00322 | 36941 ft | 435 kts | 38° |
| 2026-04-25 23:32 | 36.63128 | -77.95143 | 36950 ft | 434 kts | 38° |
| 2026-04-25 23:33 | 36.67490 | -77.89971 | 36935 ft | 432 kts | 38° |
| 2026-04-25 23:33 | 36.71834 | -77.84812 | 36904 ft | 431 kts | 38° |
| 2026-04-25 23:34 | 36.76173 | -77.79681 | 36902 ft | 427 kts | 34° |
| 2026-04-25 23:34 | 36.78605 | -77.77682 | 36906 ft | 412 kts | 17° |
| 2026-04-25 23:34 | 36.81257 | -77.76500 | 36900 ft | 399 kts | 4° |
| 2026-04-25 23:34 | 36.83964 | -77.76108 | 36918 ft | 385 kts | 352° |
| 2026-04-25 23:35 | 36.86639 | -77.76071 | 36908 ft | 385 kts | 352° |
| 2026-04-25 23:35 | 36.91971 | -77.75987 | 36903 ft | 386 kts | 352° |
| 2026-04-25 23:36 | 36.97375 | -77.75670 | 36869 ft | 398 kts | 5° |
| 2026-04-25 23:36 | 37.00010 | -77.74399 | 36903 ft | 413 kts | 23° |
| 2026-04-25 23:36 | 37.02491 | -77.72545 | 36885 ft | 418 kts | 25° |
| 2026-04-25 23:37 | 37.07438 | -77.68690 | 36889 ft | 420 kts | 24° |
| 2026-04-25 23:37 | 37.12514 | -77.65113 | 36859 ft | 412 kts | 11° |
| 2026-04-25 23:37 | 37.15248 | -77.64405 | 36894 ft | 394 kts | 353° |
| 2026-04-25 23:38 | 37.17963 | -77.64425 | 36914 ft | 389 kts | 349° |
| 2026-04-25 23:38 | 37.23389 | -77.64707 | 36919 ft | 392 kts | 349° |
| 2026-04-25 23:39 | 37.28821 | -77.64920 | 36925 ft | 395 kts | 350° |
| 2026-04-25 23:39 | 37.34356 | -77.65085 | 36919 ft | 396 kts | 350° |
| 2026-04-25 23:40 | 37.39829 | -77.65247 | 36923 ft | 396 kts | 350° |
| 2026-04-25 23:40 | 37.45331 | -77.65414 | 36925 ft | 395 kts | 350° |
| 2026-04-25 23:40 | 37.48091 | -77.65332 | 36894 ft | 405 kts | 3° |
| 2026-04-25 23:41 | 37.50798 | -77.64174 | 36962 ft | 415 kts | 16° |
| 2026-04-25 23:41 | 37.56070 | -77.61114 | 36931 ft | 418 kts | 19° |
| 2026-04-25 23:42 | 37.61290 | -77.57857 | 36932 ft | 418 kts | 19° |
| 2026-04-25 23:42 | 37.66540 | -77.54662 | 36935 ft | 418 kts | 18° |
| 2026-04-25 23:43 | 37.71803 | -77.51509 | 36934 ft | 419 kts | 18° |
| 2026-04-25 23:43 | 37.77035 | -77.48347 | 36939 ft | 420 kts | 19° |
| 2026-04-25 23:44 | 37.82308 | -77.45155 | 36934 ft | 421 kts | 18° |
| 2026-04-25 23:44 | 37.87601 | -77.41977 | 36935 ft | 422 kts | 18° |
| 2026-04-25 23:45 | 37.92917 | -77.38798 | 36932 ft | 423 kts | 18° |
| 2026-04-25 23:45 | 37.95610 | -77.37133 | 35604 ft | 445 kts | 23° |
| 2026-04-25 23:45 | 37.98241 | -77.34857 | 34142 ft | 473 kts | 41° |
| 2026-04-25 23:45 | 38.00317 | -77.31527 | 32579 ft | 490 kts | 61° |
| 2026-04-25 23:46 | 38.01581 | -77.27475 | 31251 ft | 497 kts | 78° |
| 2026-04-25 23:46 | 38.01970 | -77.23153 | 30137 ft | 492 kts | 94° |
| 2026-04-25 23:46 | 38.01463 | -77.18901 | 28809 ft | 485 kts | 111° |
| 2026-04-25 23:46 | 38.00039 | -77.15102 | 27486 ft | 473 kts | 129° |
| 2026-04-25 23:47 | 37.97838 | -77.12094 | 26247 ft | 460 kts | 146° |
| 2026-04-25 23:47 | 37.95142 | -77.10068 | 25408 ft | 441 kts | 161° |
| 2026-04-25 23:47 | 37.92290 | -77.08859 | 24359 ft | 429 kts | 172° |
| 2026-04-25 23:47 | 37.89348 | -77.08532 | 23072 ft | 423 kts | 186° |
| 2026-04-25 23:48 | 37.86416 | -77.08808 | 21729 ft | 421 kts | 188° |
| 2026-04-25 23:48 | 37.83551 | -77.09175 | 20477 ft | 419 kts | 189° |
| 2026-04-25 23:48 | 37.80662 | -77.09565 | 19276 ft | 416 kts | 189° |
| 2026-04-25 23:48 | 37.77795 | -77.09943 | 18136 ft | 412 kts | 189° |
| 2026-04-25 23:49 | 37.74961 | -77.10299 | 16929 ft | 407 kts | 188° |
| 2026-04-25 23:49 | 37.72169 | -77.10634 | 15861 ft | 399 kts | 188° |
| 2026-04-25 23:49 | 37.69436 | -77.10953 | 14878 ft | 390 kts | 188° |
| 2026-04-25 23:49 | 37.66758 | -77.11262 | 13774 ft | 385 kts | 187° |
| 2026-04-25 23:50 | 37.64097 | -77.11568 | 12478 ft | 382 kts | 187° |
| 2026-04-25 23:50 | 37.61463 | -77.11870 | 11223 ft | 379 kts | 187° |
| 2026-04-25 23:50 | 37.58852 | -77.12169 | 10028 ft | 375 kts | 187° |
| 2026-04-25 23:50 | 37.56272 | -77.12464 | 8770 ft | 369 kts | 187° |
| 2026-04-25 23:51 | 37.53757 | -77.12752 | 7542 ft | 364 kts | 187° |
| 2026-04-25 23:51 | 37.51239 | -77.12936 | 6321 ft | 362 kts | 179° |
| 2026-04-25 23:51 | 37.48786 | -77.12271 | 5083 ft | 362 kts | 163° |
| 2026-04-25 23:51 | 37.46438 | -77.11142 | 3832 ft | 361 kts | 156° |
| 2026-04-25 23:52 | 37.44447 | -77.09336 | 3289 ft | 343 kts | 131° |
| 2026-04-25 23:52 | 37.43112 | -77.06996 | 3150 ft | 315 kts | 121° |
| 2026-04-25 23:52 | 37.42012 | -77.04720 | 3013 ft | 293 kts | 120° |
| 2026-04-25 23:52 | 37.41010 | -77.02598 | 2983 ft | 271 kts | 120° |
| 2026-04-25 23:53 | 37.40084 | -77.00631 | 2975 ft | 252 kts | 120° |
| 2026-04-25 23:53 | 37.39227 | -76.98800 | 2976 ft | 234 kts | 120° |
| 2026-04-25 23:53 | 37.38428 | -76.97100 | 2976 ft | 219 kts | 120° |
| 2026-04-25 23:53 | 37.37659 | -76.95463 | 3014 ft | 218 kts | 119° |
| 2026-04-25 23:54 | 37.36875 | -76.93805 | 3021 ft | 221 kts | 119° |
| 2026-04-25 23:54 | 37.36093 | -76.92159 | 3020 ft | 222 kts | 119° |
| 2026-04-25 23:54 | 37.35297 | -76.90488 | 2981 ft | 225 kts | 120° |
| 2026-04-25 23:54 | 37.34492 | -76.88789 | 2973 ft | 227 kts | 119° |
| 2026-04-25 23:55 | 37.33689 | -76.87086 | 2957 ft | 224 kts | 119° |
| 2026-04-25 23:55 | 37.32899 | -76.85409 | 2954 ft | 222 kts | 119° |
| 2026-04-25 23:55 | 37.32119 | -76.83744 | 2958 ft | 220 kts | 120° |
| 2026-04-25 23:55 | 37.31207 | -76.82218 | 2950 ft | 220 kts | 142° |
| 2026-04-25 23:56 | 37.29803 | -76.81515 | 2968 ft | 222 kts | 178° |
| 2026-04-25 23:56 | 37.28324 | -76.81910 | 2956 ft | 217 kts | 214° |
| 2026-04-25 23:56 | 37.27317 | -76.83238 | 2958 ft | 208 kts | 249° |
| 2026-04-25 23:56 | 37.26877 | -76.84931 | 2961 ft | 203 kts | 258° |
| 2026-04-25 23:57 | 37.26511 | -76.86636 | 2963 ft | 202 kts | 259° |
| 2026-04-25 23:57 | 37.26216 | -76.88359 | 2962 ft | 201 kts | 273° |
| 2026-04-25 23:57 | 37.26471 | -76.90076 | 2840 ft | 204 kts | 287° |
| 2026-04-25 23:57 | 37.26804 | -76.91810 | 2728 ft | 205 kts | 285° |
| 2026-04-25 23:58 | 37.27116 | -76.93557 | 2582 ft | 205 kts | 285° |
| 2026-04-25 23:58 | 37.27409 | -76.95292 | 2456 ft | 201 kts | 285° |
| 2026-04-25 23:58 | 37.27688 | -76.97003 | 2334 ft | 199 kts | 286° |
| 2026-04-25 23:58 | 37.27959 | -76.98714 | 2206 ft | 201 kts | 285° |
| 2026-04-25 23:59 | 37.28227 | -77.00443 | 2086 ft | 203 kts | 285° |
| 2026-04-25 23:59 | 37.28488 | -77.02163 | 1964 ft | 196 kts | 285° |
| 2026-04-25 23:59 | 37.28733 | -77.03806 | 1816 ft | 187 kts | 285° |
| 2026-04-25 23:59 | 37.28966 | -77.05369 | 1703 ft | 184 kts | 285° |
| 2026-04-26 00:00 | 37.29197 | -77.06935 | 1663 ft | 181 kts | 286° |
| 2026-04-26 00:00 | 37.29429 | -77.08507 | 1684 ft | 186 kts | 285° |
| 2026-04-26 00:00 | 37.29665 | -77.10112 | 1715 ft | 188 kts | 285° |
| 2026-04-26 00:00 | 37.29902 | -77.11734 | 1684 ft | 189 kts | 285° |
| 2026-04-26 00:01 | 37.30128 | -77.13302 | 1654 ft | 176 kts | 285° |
| 2026-04-26 00:01 | 37.30531 | -77.14706 | 1677 ft | 167 kts | 306° |
| 2026-04-26 00:01 | 37.31278 | -77.15800 | 1663 ft | 164 kts | 326° |
| 2026-04-26 00:01 | 37.32193 | -77.16667 | 1678 ft | 167 kts | 328° |
| 2026-04-26 00:02 | 37.33118 | -77.17474 | 1671 ft | 157 kts | 333° |
| 2026-04-26 00:02 | 37.34002 | -77.18199 | 1684 ft | 144 kts | 332° |
| 2026-04-26 00:02 | 37.34912 | -77.18931 | 1706 ft | 167 kts | 329° |
| 2026-04-26 00:02 | 37.35873 | -77.19705 | 1692 ft | 163 kts | 327° |
| 2026-04-26 00:03 | 37.36795 | -77.20449 | 1688 ft | 156 kts | 330° |
| 2026-04-26 00:03 | 37.37733 | -77.21200 | 1703 ft | 156 kts | 332° |
| 2026-04-26 00:03 | 37.38638 | -77.21928 | 1698 ft | 154 kts | 328° |
| 2026-04-26 00:03 | 37.39522 | -77.22639 | 1691 ft | 149 kts | 327° |
| 2026-04-26 00:04 | 37.40395 | -77.23336 | 1686 ft | 148 kts | 329° |
| 2026-04-26 00:04 | 37.41246 | -77.24018 | 1699 ft | 142 kts | 329° |
| 2026-04-26 00:04 | 37.42066 | -77.24671 | 1672 ft | 138 kts | 330° |
| 2026-04-26 00:04 | 37.42860 | -77.25308 | 1685 ft | 133 kts | 330° |
| 2026-04-26 00:05 | 37.43637 | -77.25930 | 1683 ft | 132 kts | 329° |
| 2026-04-26 00:05 | 37.44407 | -77.26547 | 1667 ft | 132 kts | 330° |
| 2026-04-26 00:05 | 37.45284 | -77.27265 | 1242 ft | 157 kts | 328° |
| 2026-04-26 00:05 | 37.46132 | -77.27971 | 1189 ft | 133 kts | 329° |
| 2026-04-26 00:06 | 37.46924 | -77.28621 | 945 ft | 139 kts | 329° |
| 2026-04-26 00:06 | 37.47794 | -77.29283 | 538 ft | 157 kts | 334° |
| 2026-04-26 00:06 | 37.48732 | -77.29966 | 934 ft | 146 kts | 335° |
| 2026-04-26 00:06 | 37.49562 | -77.30656 | 1793 ft | 165 kts | 329° |
| 2026-04-26 00:07 | 37.50687 | -77.31519 | 1944 ft | 198 kts | 334° |
| 2026-04-26 00:07 | 37.51957 | -77.32316 | 1784 ft | 208 kts | 332° |
| 2026-04-26 00:07 | 37.53248 | -77.32767 | 2015 ft | 182 kts | 5° |
| 2026-04-26 00:07 | 37.54432 | -77.32298 | 2374 ft | 180 kts | 19° |
| 2026-04-26 00:08 | 37.55512 | -77.31468 | 2715 ft | 191 kts | 45° |
| 2026-04-26 00:08 | 37.56018 | -77.29930 | 2964 ft | 196 kts | 83° |
| 2026-04-26 00:08 | 37.55683 | -77.28260 | 3000 ft | 203 kts | 123° |
| 2026-04-26 00:08 | 37.54705 | -77.26975 | 2999 ft | 205 kts | 138° |
| 2026-04-26 00:09 | 37.53633 | -77.25803 | 2974 ft | 205 kts | 139° |
| 2026-04-26 00:09 | 37.52543 | -77.24620 | 2969 ft | 206 kts | 139° |
| 2026-04-26 00:09 | 37.51442 | -77.23457 | 2961 ft | 207 kts | 139° |
| 2026-04-26 00:09 | 37.50332 | -77.22304 | 2973 ft | 207 kts | 140° |
| 2026-04-26 00:10 | 37.49228 | -77.21131 | 2935 ft | 211 kts | 140° |
| 2026-04-26 00:10 | 37.48099 | -77.19935 | 2766 ft | 211 kts | 140° |
| 2026-04-26 00:10 | 37.46994 | -77.18728 | 2606 ft | 209 kts | 139° |
| 2026-04-26 00:10 | 37.45884 | -77.17539 | 2400 ft | 210 kts | 139° |
| 2026-04-26 00:11 | 37.44764 | -77.16369 | 2243 ft | 208 kts | 139° |
| 2026-04-26 00:11 | 37.43644 | -77.15211 | 2048 ft | 207 kts | 140° |
| 2026-04-26 00:11 | 37.42567 | -77.14049 | 1822 ft | 202 kts | 140° |
| 2026-04-26 00:11 | 37.41532 | -77.12897 | 1738 ft | 196 kts | 139° |
| 2026-04-26 00:12 | 37.40449 | -77.11708 | 1768 ft | 212 kts | 139° |
| 2026-04-26 00:12 | 37.39320 | -77.10565 | 1668 ft | 204 kts | 139° |
| 2026-04-26 00:12 | 37.38255 | -77.09483 | 1676 ft | 192 kts | 140° |
| 2026-04-26 00:12 | 37.37227 | -77.08424 | 1659 ft | 196 kts | 140° |
| 2026-04-26 00:13 | 37.36133 | -77.07300 | 1696 ft | 208 kts | 138° |
| 2026-04-26 00:13 | 37.35026 | -77.06158 | 1698 ft | 202 kts | 139° |
| 2026-04-26 00:13 | 37.33972 | -77.05054 | 1674 ft | 193 kts | 139° |
| 2026-04-26 00:13 | 37.32918 | -77.03992 | 1665 ft | 195 kts | 139° |
| 2026-04-26 00:14 | 37.31827 | -77.02941 | 1691 ft | 200 kts | 139° |
| 2026-04-26 00:14 | 37.30721 | -77.01878 | 1695 ft | 200 kts | 144° |
| 2026-04-26 00:14 | 37.29426 | -77.01457 | 1655 ft | 192 kts | 196° |
| 2026-04-26 00:14 | 37.28357 | -77.02358 | 1695 ft | 187 kts | 247° |
| 2026-04-26 00:15 | 37.28006 | -77.03850 | 1665 ft | 178 kts | 266° |
| 2026-04-26 00:15 | 37.28070 | -77.05345 | 1688 ft | 173 kts | 289° |
| 2026-04-26 00:15 | 37.28404 | -77.06820 | 1689 ft | 176 kts | 291° |
| 2026-04-26 00:15 | 37.28750 | -77.08272 | 1680 ft | 173 kts | 293° |
| 2026-04-26 00:16 | 37.29092 | -77.09705 | 1690 ft | 171 kts | 294° |
| 2026-04-26 00:16 | 37.29429 | -77.11132 | 1678 ft | 171 kts | 292° |
| 2026-04-26 00:16 | 37.29766 | -77.12564 | 1667 ft | 173 kts | 291° |
| 2026-04-26 00:16 | 37.30126 | -77.14037 | 1683 ft | 175 kts | 296° |
| 2026-04-26 00:17 | 37.30750 | -77.15292 | 1679 ft | 168 kts | 311° |
| 2026-04-26 00:17 | 37.31581 | -77.16306 | 1673 ft | 166 kts | 330° |
| 2026-04-26 00:17 | 37.32540 | -77.17078 | 1692 ft | 160 kts | 333° |
| 2026-04-26 00:17 | 37.33451 | -77.17812 | 1669 ft | 154 kts | 332° |
| 2026-04-26 00:18 | 37.34345 | -77.18529 | 1656 ft | 151 kts | 329° |
| 2026-04-26 00:18 | 37.35197 | -77.19212 | 1677 ft | 141 kts | 328° |
| 2026-04-26 00:18 | 37.36002 | -77.19855 | 1688 ft | 135 kts | 328° |
| 2026-04-26 00:18 | 37.36790 | -77.20484 | 1656 ft | 136 kts | 332° |
| 2026-04-26 00:19 | 37.37575 | -77.21110 | 1705 ft | 134 kts | 333° |
| 2026-04-26 00:19 | 37.38368 | -77.21739 | 1684 ft | 134 kts | 329° |
| 2026-04-26 00:19 | 37.39141 | -77.22361 | 1705 ft | 132 kts | 331° |
| 2026-04-26 00:19 | 37.39955 | -77.23004 | 1694 ft | 138 kts | 329° |
| 2026-04-26 00:20 | 37.40760 | -77.23644 | 1693 ft | 137 kts | 327° |
| 2026-04-26 00:20 | 37.41568 | -77.24287 | 1671 ft | 136 kts | 331° |
| 2026-04-26 00:20 | 37.42091 | -77.24703 | 1700 ft | 133 kts | 332° |
| 2026-04-26 00:20 | 37.43160 | -77.25513 | 1691 ft | 134 kts | 329° |
| 2026-04-26 00:21 | 37.43675 | -77.25920 | 1674 ft | 130 kts | 327° |
| 2026-04-26 00:21 | 37.44767 | -77.26824 | 1373 ft | 163 kts | 328° |
| 2026-04-26 00:21 | 37.45682 | -77.27582 | 1205 ft | 147 kts | 335° |
| 2026-04-26 00:21 | 37.46565 | -77.28187 | 875 ft | 139 kts | 329° |
| 2026-04-26 00:22 | 37.47308 | -77.28940 | 794 ft | 141 kts | 326° |
| 2026-04-26 00:22 | 37.48167 | -77.29610 | 551 ft | 146 kts | 334° |
| 2026-04-26 00:22 | 37.48741 | -77.30024 | 432 ft | 141 kts | 332° |
| 2026-04-26 00:22 | 37.49566 | -77.30689 | 199 ft | 136 kts | 332° |
| 2026-04-26 00:23 | 37.50279 | -77.31250 | 171 ft | 105 kts | 330° |
| 2026-04-26 00:23 | 37.50774 | -77.31665 | 172 ft | 66 kts | 315° |
| 2026-04-26 00:23 | 37.50911 | -77.32001 | 171 ft | 32 kts | 287° |
| 2026-04-26 00:23 | 37.50953 | -77.32215 | 172 ft | 24 kts | 279° |
| 2026-04-26 00:24 | 37.50971 | -77.32421 | 170 ft | 27 kts | 275° |
| 2026-04-26 00:24 | 37.50989 | -77.32666 | 172 ft | 27 kts | 270° |
| 2026-04-26 00:24 | 37.50930 | -77.32882 | 171 ft | 22 kts | 230° |
| 2026-04-26 00:24 | 37.50809 | -77.32917 | 173 ft | 18 kts | 194° |
| 2026-04-26 00:25 | 37.50672 | -77.32958 | 172 ft | 23 kts | 194° |
| 2026-04-26 00:25 | 37.50500 | -77.33012 | 172 ft | 29 kts | 192° |
| 2026-04-26 00:25 | 37.50318 | -77.33070 | 168 ft | 20 kts | 199° |
| 2026-04-26 00:25 | 37.50298 | -77.33129 | 167 ft | 19 kts | 289° |
| 2026-04-26 00:26 | 37.50342 | -77.33314 | 169 ft | 22 kts | 285° |
| 2026-04-26 00:26 | 37.50345 | -77.33454 | 169 ft | 10 kts | 200° |